Time;durP1;ratioP1;P1;durP2;ratioP2;P2;SDS_P1;SDS_P2;PMS_P1;PMS_P2;Temp;Humidity;BMP_temperature;BMP_pressure;BME280_temperature;BME280_humidity;BME280_pressure;Samples;Min_cycle;Max_cycle;Signal;HPM_P1;HPM_P2
2021/12/14 06:00:35;;;;;;;6.20;5.60;;;7.10;97.20;;;;;;1713722;28;20268;-78
2021/12/14 06:01:29;;;;;;;6.57;5.95;;;7.10;97.20;;;;;;1715632;28;20197;-78
2021/12/14 06:02:23;;;;;;;6.35;5.32;;;7.20;97.20;;;;;;1708507;28;20209;-78
2021/12/14 06:03:16;;;;;;;6.20;5.60;;;7.20;97.20;;;;;;1712537;28;20202;-78
2021/12/14 06:04:09;;;;;;;6.25;5.50;;;7.20;97.20;;;;;;1715115;28;20221;-78
2021/12/14 06:05:00;;;;;;;7.30;5.60;;;7.20;97.20;;;;;;1715368;28;20244;-77
2021/12/14 06:05:53;;;;;;;6.10;5.50;;;7.20;97.20;;;;;;1715161;28;20202;-77
2021/12/14 06:06:52;;;;;;;6.75;5.55;;;7.20;97.20;;;;;;1715224;28;20833;-78
2021/12/14 06:07:44;;;;;;;7.35;5.82;;;7.20;97.20;;;;;;1715134;28;20206;-78
2021/12/14 06:08:35;;;;;;;8.20;6.28;;;7.20;97.20;;;;;;1715361;28;20217;-78
2021/12/14 06:09:30;;;;;;;6.70;6.10;;;7.20;97.20;;;;;;1714636;28;20212;-77
2021/12/14 06:10:23;;;;;;;8.25;6.22;;;7.20;97.20;;;;;;1715023;28;20216;-78
2021/12/14 06:11:21;;;;;;;6.63;5.90;;;7.20;97.20;;;;;;1714985;28;20618;-77
2021/12/14 06:12:15;;;;;;;8.23;5.45;;;7.30;97.20;;;;;;1715283;28;20202;-78
2021/12/14 06:13:06;;;;;;;11.00;5.60;;;7.30;97.20;;;;;;1715321;28;20198;-78
2021/12/14 06:13:57;;;;;;;13.57;6.32;;;7.30;97.20;;;;;;1721902;28;20213;-78
2021/12/14 06:14:53;;;;;;;13.20;5.75;;;7.30;97.20;;;;;;1721896;28;20687;-78
2021/12/14 06:15:46;;;;;;;10.60;5.85;;;7.20;97.20;;;;;;1719484;28;20726;-79
2021/12/14 06:16:38;;;;;;;14.95;5.82;;;7.20;97.20;;;;;;1721501;28;20213;-79
2021/12/14 06:17:32;;;;;;;7.10;5.68;;;7.20;97.20;;;;;;1722106;28;20719;-79
2021/12/14 06:18:25;;;;;;;6.63;5.90;;;7.20;97.20;;;;;;1721586;28;20212;-78
2021/12/14 06:19:19;;;;;;;10.13;6.35;;;7.20;97.20;;;;;;1721482;28;20242;-78
2021/12/14 06:20:14;;;;;;;13.68;5.68;;;7.20;97.20;;;;;;1721649;28;20201;-78
2021/12/14 06:21:05;;;;;;;7.20;6.20;;;7.20;97.20;;;;;;1721664;28;20271;-78
2021/12/14 06:22:00;;;;;;;8.73;6.80;;;7.20;97.20;;;;;;1721897;28;20209;-78
2021/12/14 06:22:53;;;;;;;9.70;6.30;;;7.10;97.20;;;;;;1721935;28;20559;-78
2021/12/14 06:23:45;;;;;;;7.32;6.63;;;7.10;97.20;;;;;;1720563;28;20201;-78
2021/12/14 06:24:38;;;;;;;7.57;6.85;;;7.20;97.20;;;;;;1721483;28;20201;-77
2021/12/14 06:25:30;;;;;;;7.28;6.57;;;7.20;97.20;;;;;;1721431;28;20225;-75
2021/12/14 06:26:32;;;;;;;8.15;6.63;;;7.20;97.20;;;;;;1718125;28;20690;-75
2021/12/14 06:27:27;;;;;;;6.30;5.70;;;7.30;97.20;;;;;;1708069;29;20254;-76
2021/12/14 06:28:23;;;;;;;7.80;6.80;;;7.30;97.20;;;;;;1708182;28;20222;-76
2021/12/14 06:29:18;;;;;;;6.95;6.25;;;7.30;97.20;;;;;;1707945;28;20205;-76
2021/12/14 06:30:12;;;;;;;7.35;6.05;;;7.30;97.20;;;;;;1707995;28;20641;-76
2021/12/14 06:31:05;;;;;;;7.05;6.35;;;7.30;97.20;;;;;;1708108;28;20611;-76
2021/12/14 06:31:58;;;;;;;6.53;5.80;;;7.20;97.20;;;;;;1714101;28;20680;-76
2021/12/14 06:32:53;;;;;;;6.50;5.90;;;7.20;97.20;;;;;;1714757;28;20637;-76
2021/12/14 06:33:44;;;;;;;6.82;6.13;;;7.20;97.20;;;;;;1714415;28;20241;-76
2021/12/14 06:34:38;;;;;;;7.40;6.63;;;7.20;97.20;;;;;;1714709;28;20210;-76
2021/12/14 06:35:35;;;;;;;6.75;6.05;;;7.30;97.20;;;;;;1714281;28;20225;-76
2021/12/14 06:37:04;;;;;;;7.70;6.90;;;7.30;97.20;;;;;;1713806;28;20573;-76
2021/12/14 06:39:17;;;;;;;7.03;6.32;;;7.30;97.20;;;;;;1718756;28;20286;-75
2021/12/14 06:40:18;;;;;;;7.60;6.80;;;7.20;97.20;;;;;;1721228;28;20584;-76
2021/12/14 06:41:13;;;;;;;7.80;7.00;;;7.20;97.20;;;;;;1721333;28;20296;-75
2021/12/14 06:42:05;;;;;;;7.32;6.63;;;7.10;97.20;;;;;;1721351;28;20197;-76
2021/12/14 06:43:00;;;;;;;7.13;6.43;;;7.10;97.20;;;;;;1721435;28;20205;-76
2021/12/14 06:43:54;;;;;;;7.22;6.53;;;7.10;97.20;;;;;;1721501;28;20318;-76
2021/12/14 06:44:45;;;;;;;7.93;7.13;;;7.10;97.20;;;;;;1721363;28;20219;-76
2021/12/14 06:45:39;;;;;;;7.45;6.75;;;7.10;97.20;;;;;;1721322;28;20216;-75
2021/12/14 06:46:36;;;;;;;7.35;6.65;;;7.10;97.20;;;;;;1721394;28;20193;-76
2021/12/14 06:47:29;;;;;;;7.95;7.18;;;7.10;97.20;;;;;;1721350;28;20202;-76
2021/12/14 06:48:24;;;;;;;7.22;6.53;;;7.10;97.20;;;;;;1721309;28;20563;-76
2021/12/14 06:49:16;;;;;;;7.40;6.53;;;7.10;97.20;;;;;;1721109;28;20206;-76
2021/12/14 06:50:11;;;;;;;7.35;6.60;;;7.10;97.20;;;;;;1721190;28;20197;-76
2021/12/14 06:51:07;;;;;;;7.13;6.43;;;7.00;97.20;;;;;;1721327;28;20209;-76
2021/12/14 06:51:58;;;;;;;8.23;7.43;;;7.00;97.20;;;;;;1721386;28;20284;-76
2021/12/14 06:53:02;;;;;;;7.13;6.40;;;6.90;97.20;;;;;;1719322;28;20261;-76
2021/12/14 06:53:57;;;;;;;7.88;7.07;;;6.90;97.20;;;;;;1721105;28;20296;-76
2021/12/14 06:54:48;;;;;;;8.43;7.63;;;6.90;97.20;;;;;;1721272;28;20244;-76
2021/12/14 06:55:40;;;;;;;7.90;7.10;;;6.90;97.20;;;;;;1721337;28;20205;-76
2021/12/14 06:56:34;;;;;;;8.02;7.22;;;6.90;97.20;;;;;;1721302;28;20209;-76
2021/12/14 06:57:25;;;;;;;8.30;7.50;;;6.80;97.20;;;;;;1721226;28;20220;-76
2021/12/14 06:58:20;;;;;;;9.13;7.95;;;6.80;97.20;;;;;;1721302;28;20239;-76
2021/12/14 06:59:15;;;;;;;8.95;8.05;;;6.80;97.20;;;;;;1721031;28;20201;-76
2021/12/14 07:00:07;;;;;;;7.70;6.90;;;6.80;97.20;;;;;;1720640;28;20333;-76
2021/12/14 07:01:06;;;;;;;8.40;7.55;;;6.80;97.20;;;;;;1714433;28;20269;-76
2021/12/14 07:02:01;;;;;;;8.07;7.05;;;6.90;97.20;;;;;;1714781;28;20217;-76
2021/12/14 07:02:53;;;;;;;9.10;8.20;;;6.90;97.20;;;;;;1714689;28;20731;-75
2021/12/14 07:03:47;;;;;;;7.18;6.50;;;6.90;97.20;;;;;;1714543;28;20214;-76
2021/12/14 07:04:48;;;;;;;9.15;8.25;;;6.90;97.20;;;;;;1714499;28;20536;-76
2021/12/14 07:05:40;;;;;;;8.55;7.75;;;6.90;97.20;;;;;;1714526;28;20207;-76
2021/12/14 07:06:35;;;;;;;8.13;7.32;;;6.90;97.20;;;;;;1714611;28;20700;-76
2021/12/14 07:07:27;;;;;;;8.75;7.85;;;6.80;97.20;;;;;;1714534;28;20202;-76
2021/12/14 07:08:26;;;;;;;8.30;7.50;;;6.80;97.20;;;;;;1714510;28;20229;-76
2021/12/14 07:09:20;;;;;;;8.43;7.63;;;6.80;97.20;;;;;;1714289;28;20217;-76
2021/12/14 07:10:12;;;;;;;9.07;8.18;;;6.70;97.20;;;;;;1714489;28;20281;-75
2021/12/14 07:11:04;;;;;;;8.23;7.43;;;6.70;97.20;;;;;;1714456;28;20205;-76
2021/12/14 07:11:59;;;;;;;8.40;7.55;;;6.70;97.20;;;;;;1714561;28;20617;-76
2021/12/14 07:12:51;;;;;;;7.78;7.05;;;6.70;97.20;;;;;;1714520;28;20206;-76
2021/12/14 07:13:42;;;;;;;7.53;6.72;;;6.70;97.20;;;;;;1714523;28;20292;-76
2021/12/14 07:14:40;;;;;;;8.23;7.43;;;6.80;97.20;;;;;;1714507;28;20217;-76
2021/12/14 07:15:36;;;;;;;8.55;7.57;;;6.80;97.20;;;;;;1714614;28;20201;-76
2021/12/14 07:16:31;;;;;;;6.90;6.20;;;6.80;97.20;;;;;;1714521;28;20684;-76
2021/12/14 07:17:27;;;;;;;7.43;6.72;;;6.80;97.20;;;;;;1714577;28;20202;-76
2021/12/14 07:18:24;;;;;;;9.35;7.57;;;6.80;97.20;;;;;;1714496;28;20248;-76
2021/12/14 07:19:16;;;;;;;7.93;7.13;;;6.80;97.20;;;;;;1714230;28;20704;-75
2021/12/14 07:20:18;;;;;;;7.80;7.00;;;6.90;97.20;;;;;;1714367;28;20202;-76
2021/12/14 07:21:10;;;;;;;7.90;7.10;;;7.00;97.20;;;;;;1714549;28;20575;-76
2021/12/14 07:22:01;;;;;;;8.30;7.50;;;7.00;97.20;;;;;;1714506;28;20712;-76
2021/12/14 07:22:55;;;;;;;7.55;6.85;;;7.10;97.20;;;;;;1714487;28;20593;-76
2021/12/14 07:23:46;;;;;;;8.00;7.20;;;7.10;97.20;;;;;;1714403;28;20553;-76
2021/12/14 07:24:38;;;;;;;7.87;7.13;;;7.20;97.20;;;;;;1719278;28;20575;-76
2021/12/14 07:25:32;;;;;;;7.97;7.18;;;7.20;97.20;;;;;;1721075;28;20455;-76
2021/12/14 07:26:23;;;;;;;7.75;7.05;;;7.30;97.20;;;;;;1721119;28;20389;-75
2021/12/14 07:27:21;;;;;;;7.63;6.93;;;7.30;97.20;;;;;;1721271;28;20686;-76
2021/12/14 07:28:15;;;;;;;7.85;7.15;;;7.40;97.20;;;;;;1721231;28;20348;-76
2021/12/14 07:29:05;;;;;;;7.13;6.43;;;7.40;97.20;;;;;;1720888;28;20217;-76
2021/12/14 07:30:16;;;;;;;7.40;6.70;;;7.50;97.20;;;;;;1721060;28;20296;-76
2021/12/14 07:31:13;;;;;;;7.45;6.75;;;7.50;97.20;;;;;;1707726;29;20662;-76
2021/12/14 07:32:06;;;;;;;7.85;7.10;;;7.50;97.20;;;;;;1707762;28;20211;-76
2021/12/14 07:33:05;;;;;;;8.48;7.68;;;7.50;97.20;;;;;;1707853;28;20207;-76
2021/12/14 07:33:59;;;;;;;8.65;7.75;;;7.50;97.20;;;;;;1707743;28;20670;-76
2021/12/14 07:34:50;;;;;;;8.85;7.95;;;7.50;97.20;;;;;;1707764;28;20206;-75
2021/12/14 07:35:49;;;;;;;7.20;6.50;;;7.50;97.20;;;;;;1707816;28;20206;-76
2021/12/14 07:36:40;;;;;;;7.38;6.68;;;7.50;97.20;;;;;;1707725;28;20234;-76
2021/12/14 07:37:35;;;;;;;7.63;6.82;;;7.50;97.20;;;;;;1707675;28;20198;-75
2021/12/14 07:38:39;;;;;;;7.32;6.63;;;7.40;97.20;;;;;;1707680;28;20346;-76
2021/12/14 07:39:29;;;;;;;6.00;5.50;;;7.40;97.20;;;;;;1707701;28;20674;-76
2021/12/14 07:40:23;;;;;;;6.60;6.00;;;7.40;97.20;;;;;;1717860;28;20538;-76
2021/12/14 07:41:21;;;;;;;7.18;6.47;;;7.40;97.20;;;;;;1720891;28;20494;-76
2021/12/14 07:42:15;;;;;;;7.88;7.18;;;7.40;97.20;;;;;;1721047;28;20332;-76
2021/12/14 07:43:14;;;;;;;6.90;6.30;;;7.40;97.20;;;;;;1720870;28;20201;-76
2021/12/14 07:44:11;;;;;;;10.45;6.35;;;7.40;97.20;;;;;;1720958;28;20193;-76
2021/12/14 07:45:03;;;;;;;6.43;5.50;;;7.40;97.20;;;;;;1720993;28;20711;-76
2021/12/14 07:45:57;;;;;;;6.57;5.97;;;7.40;97.20;;;;;;1721054;28;20209;-76
2021/12/14 07:46:52;;;;;;;6.00;5.40;;;7.40;97.20;;;;;;1720967;28;20225;-76
2021/12/14 07:47:51;;;;;;;6.30;5.70;;;7.40;97.20;;;;;;1720918;28;20205;-76
2021/12/14 07:48:47;;;;;;;6.28;5.68;;;7.50;97.20;;;;;;1720706;28;20711;-76
2021/12/14 07:49:45;;;;;;;7.00;5.90;;;7.50;97.20;;;;;;1720955;28;20209;-76
2021/12/14 07:50:39;;;;;;;6.10;5.57;;;7.50;97.20;;;;;;1720901;28;20671;-76
2021/12/14 07:51:35;;;;;;;6.40;5.80;;;7.50;97.20;;;;;;1721000;28;20201;-76
2021/12/14 07:52:31;;;;;;;6.80;6.10;;;7.50;97.20;;;;;;1720994;28;20201;-76
2021/12/14 07:53:43;;;;;;;6.63;6.03;;;7.50;97.20;;;;;;1720915;28;20228;-76
2021/12/14 07:54:38;;;;;;;6.70;6.10;;;7.50;97.20;;;;;;1721035;28;20240;-75
2021/12/14 07:55:29;;;;;;;7.82;7.00;;;7.40;97.20;;;;;;1719192;28;20233;-76
2021/12/14 07:56:26;;;;;;;8.00;7.20;;;7.40;97.20;;;;;;1720971;28;20201;-76
2021/12/14 07:57:24;;;;;;;7.07;6.40;;;7.30;97.20;;;;;;1720655;28;20209;-76
2021/12/14 07:58:14;;;;;;;7.60;6.90;;;7.30;97.20;;;;;;1721015;28;20209;-76
2021/12/14 07:59:19;;;;;;;6.00;5.50;;;7.20;97.20;;;;;;1720555;28;20264;-76
2021/12/14 08:00:14;;;;;;;6.20;5.70;;;7.20;97.20;;;;;;1719837;28;20208;-76
2021/12/14 08:01:09;;;;;;;7.20;6.50;;;7.10;97.20;;;;;;1714191;28;20198;-76
2021/12/14 08:02:13;;;;;;;6.65;6.03;;;7.10;97.20;;;;;;1714307;28;20241;-76
2021/12/14 08:03:05;;;;;;;6.80;6.20;;;7.10;97.20;;;;;;1714202;28;20630;-76
2021/12/14 08:04:10;;;;;;;6.82;6.13;;;7.10;97.20;;;;;;1714245;28;20213;-76
2021/12/14 08:05:05;;;;;;;7.40;6.70;;;7.10;97.20;;;;;;1714220;28;20583;-76
2021/12/14 08:05:57;;;;;;;9.57;8.00;;;7.10;97.20;;;;;;1714221;28;20594;-76
2021/12/14 08:06:55;;;;;;;7.32;6.68;;;7.10;97.20;;;;;;1714162;28;20209;-76
2021/12/14 08:07:48;;;;;;;7.10;6.40;;;7.10;97.20;;;;;;1714302;28;20564;-76
2021/12/14 08:08:44;;;;;;;7.60;6.90;;;7.10;97.20;;;;;;1713779;28;20213;-76
2021/12/14 08:09:48;;;;;;;6.45;5.85;;;7.10;97.20;;;;;;1720709;28;20205;-76
2021/12/14 08:10:45;;;;;;;7.20;6.60;;;7.10;97.20;;;;;;1720463;28;20224;-76
2021/12/14 08:11:47;;;;;;;7.18;6.13;;;7.20;97.20;;;;;;1721020;28;20240;-76
2021/12/14 08:12:42;;;;;;;7.13;6.47;;;7.20;97.20;;;;;;1720752;28;20201;-75
2021/12/14 08:13:33;;;;;;;7.30;6.60;;;7.20;97.20;;;;;;1720846;28;20235;-75
2021/12/14 08:14:27;;;;;;;7.10;6.50;;;7.20;97.20;;;;;;1720735;28;20197;-76
2021/12/14 08:15:27;;;;;;;7.55;6.85;;;7.20;97.20;;;;;;1720695;28;20253;-75
2021/12/14 08:16:18;;;;;;;6.80;6.20;;;7.20;97.20;;;;;;1720870;28;20263;-75
2021/12/14 08:17:10;;;;;;;7.43;6.82;;;7.20;97.20;;;;;;1720750;28;20542;-75
2021/12/14 08:18:07;;;;;;;7.15;6.53;;;7.30;97.20;;;;;;1720718;28;20205;-75
2021/12/14 08:18:59;;;;;;;6.75;6.15;;;7.30;97.20;;;;;;1720641;28;20288;-75
2021/12/14 08:19:52;;;;;;;7.43;6.82;;;7.30;97.20;;;;;;1720841;28;20660;-75
2021/12/14 08:20:49;;;;;;;7.57;6.88;;;7.30;97.20;;;;;;1720773;28;20615;-75
2021/12/14 08:21:42;;;;;;;6.78;6.03;;;7.40;97.20;;;;;;1720722;28;20561;-75
2021/12/14 08:22:35;;;;;;;6.75;6.15;;;7.40;97.20;;;;;;1720744;28;20610;-75
2021/12/14 08:23:29;;;;;;;6.68;6.07;;;7.40;97.20;;;;;;1720713;28;20259;-75
2021/12/14 08:24:21;;;;;;;7.00;6.40;;;7.40;97.20;;;;;;1720677;28;20205;-75
2021/12/14 08:25:15;;;;;;;7.03;6.43;;;7.40;97.20;;;;;;1716744;28;20198;-75
2021/12/14 08:26:11;;;;;;;7.43;6.72;;;7.40;97.20;;;;;;1714099;28;20198;-75
2021/12/14 08:27:03;;;;;;;6.40;5.80;;;7.50;97.20;;;;;;1714135;28;20210;-75
2021/12/14 08:28:01;;;;;;;6.65;6.05;;;7.50;97.20;;;;;;1714100;28;20198;-75
2021/12/14 08:28:55;;;;;;;7.80;7.00;;;7.50;97.20;;;;;;1714009;28;20292;-75
2021/12/14 08:29:51;;;;;;;7.65;6.85;;;7.50;97.20;;;;;;1714022;28;20572;-75
2021/12/14 08:30:53;;;;;;;6.50;5.90;;;7.50;97.20;;;;;;1718783;28;20228;-75
2021/12/14 08:31:48;;;;;;;6.70;6.00;;;7.50;97.20;;;;;;1720725;28;20284;-75
2021/12/14 08:32:40;;;;;;;8.43;6.75;;;7.50;97.20;;;;;;1720722;28;20235;-75
2021/12/14 08:33:33;;;;;;;7.10;6.50;;;7.50;97.20;;;;;;1720773;28;20197;-75
2021/12/14 08:34:27;;;;;;;6.88;6.20;;;7.50;97.20;;;;;;1720644;28;20213;-75
2021/12/14 08:35:20;;;;;;;7.00;6.40;;;7.50;97.20;;;;;;1720717;28;20637;-74
2021/12/14 08:36:13;;;;;;;6.78;6.18;;;7.50;97.20;;;;;;1720831;28;20236;-75
2021/12/14 08:37:09;;;;;;;6.80;6.20;;;7.50;97.20;;;;;;1720696;28;20288;-75
2021/12/14 08:38:03;;;;;;;7.75;6.95;;;7.40;97.20;;;;;;1720723;28;20205;-75
2021/12/14 08:39:05;;;;;;;7.10;6.40;;;7.40;97.20;;;;;;1720535;28;20562;-75
2021/12/14 08:40:02;;;;;;;6.18;5.57;;;7.40;97.20;;;;;;1720697;28;20220;-75
2021/12/14 08:41:01;;;;;;;7.30;6.35;;;7.30;97.20;;;;;;1714675;28;20241;-75
2021/12/14 08:42:10;;;;;;;7.45;6.75;;;7.30;97.20;;;;;;1713983;28;20221;-75
2021/12/14 08:43:10;;;;;;;7.93;7.18;;;7.30;97.20;;;;;;1714056;28;20210;-75
2021/12/14 08:44:09;;;;;;;7.13;6.43;;;7.30;97.20;;;;;;1714012;28;20210;-75
2021/12/14 08:45:24;;;;;;;6.97;6.38;;;7.20;97.20;;;;;;1714152;28;20278;-75
2021/12/14 08:46:19;;;;;;;6.30;5.72;;;7.30;97.20;;;;;;1707358;28;20206;-75
2021/12/14 08:47:13;;;;;;;6.47;5.97;;;7.20;97.20;;;;;;1707364;28;20225;-75
2021/12/14 08:48:11;;;;;;;6.00;5.43;;;7.30;97.20;;;;;;1707337;28;20233;-75
2021/12/14 08:49:07;;;;;;;6.60;6.00;;;7.30;97.20;;;;;;1707126;28;20254;-75
2021/12/14 08:50:00;;;;;;;6.80;6.20;;;7.30;97.20;;;;;;1707296;28;20592;-75
2021/12/14 08:50:56;;;;;;;6.05;5.55;;;7.40;97.20;;;;;;1707319;28;20253;-75
2021/12/14 08:51:48;;;;;;;6.07;5.57;;;7.40;97.20;;;;;;1707325;28;20205;-75
2021/12/14 08:52:42;;;;;;;6.10;5.50;;;7.40;97.20;;;;;;1707333;28;20246;-74
2021/12/14 08:53:35;;;;;;;5.88;5.38;;;7.50;97.20;;;;;;1707433;28;20206;-75
2021/12/14 08:54:29;;;;;;;6.32;5.75;;;7.60;97.20;;;;;;1707209;28;20202;-75
2021/12/14 08:55:22;;;;;;;6.60;6.00;;;7.70;97.20;;;;;;1707377;28;20342;-75
2021/12/14 08:56:16;;;;;;;6.18;5.57;;;7.70;97.20;;;;;;1707389;28;20202;-75
2021/12/14 08:57:11;;;;;;;6.32;5.72;;;7.80;97.20;;;;;;1713566;28;20202;-75
2021/12/14 08:58:03;;;;;;;6.47;5.57;;;7.90;97.20;;;;;;1713967;28;20669;-75
2021/12/14 08:58:54;;;;;;;6.10;5.55;;;8.00;97.20;;;;;;1713753;28;20238;-75
2021/12/14 08:59:49;;;;;;;6.30;5.70;;;8.10;97.20;;;;;;1713964;28;20228;-75
2021/12/14 09:00:43;;;;;;;5.72;5.22;;;8.20;97.20;;;;;;1714819;28;20229;-76
2021/12/14 09:01:40;;;;;;;5.88;4.90;;;8.30;97.20;;;;;;1713887;28;20276;-76
2021/12/14 09:02:32;;;;;;;5.20;4.80;;;8.40;97.20;;;;;;1713970;28;20217;-75
2021/12/14 09:03:32;;;;;;;5.05;4.65;;;8.40;97.20;;;;;;1713908;28;20212;-75
2021/12/14 09:04:29;;;;;;;5.40;5.00;;;8.50;97.20;;;;;;1713934;28;20220;-75
2021/12/14 09:05:26;;;;;;;5.30;4.90;;;8.60;97.20;;;;;;1714041;28;20206;-75
2021/12/14 09:06:22;;;;;;;5.40;4.95;;;8.60;97.20;;;;;;1714016;28;20206;-75
2021/12/14 09:07:16;;;;;;;6.10;5.50;;;8.60;97.20;;;;;;1714045;28;20205;-75
2021/12/14 09:08:08;;;;;;;5.88;5.38;;;8.70;97.20;;;;;;1713898;28;20688;-75
2021/12/14 09:09:02;;;;;;;5.93;5.35;;;8.70;97.20;;;;;;1713638;28;20700;-75
2021/12/14 09:09:55;;;;;;;5.88;4.80;;;8.70;97.20;;;;;;1713892;28;20202;-75
2021/12/14 09:10:49;;;;;;;6.43;5.80;;;8.80;97.20;;;;;;1713757;28;20700;-75
2021/12/14 09:11:45;;;;;;;6.63;6.03;;;8.80;97.20;;;;;;1713953;28;20728;-75
2021/12/14 09:12:39;;;;;;;9.75;8.25;;;8.80;97.20;;;;;;1714937;28;20236;-75
2021/12/14 09:13:31;;;;;;;13.18;10.07;;;8.80;97.20;;;;;;1713844;28;20488;-75
2021/12/14 09:14:22;;;;;;;8.40;7.53;;;8.80;97.20;;;;;;1713870;28;20353;-75
2021/12/14 09:15:19;;;;;;;8.37;6.50;;;8.80;97.20;;;;;;1714011;28;20676;-75
2021/12/14 09:16:17;;;;;;;6.18;5.55;;;8.80;97.20;;;;;;1713889;28;20206;-75
2021/12/14 09:17:10;;;;;;;6.57;5.95;;;8.90;97.20;;;;;;1715311;28;20665;-75
2021/12/14 09:18:02;;;;;;;6.40;5.80;;;8.90;97.20;;;;;;1715320;28;20285;-75
2021/12/14 09:19:02;;;;;;;6.18;5.30;;;9.00;97.20;;;;;;1715022;28;20202;-75
2021/12/14 09:20:01;;;;;;;6.15;5.55;;;9.00;97.20;;;;;;1715261;28;20582;-75
2021/12/14 09:20:55;;;;;;;6.90;6.13;;;9.00;97.20;;;;;;1715242;28;20257;-75
2021/12/14 09:21:51;;;;;;;6.15;5.10;;;9.10;97.20;;;;;;1715044;28;20297;-75
2021/12/14 09:22:56;;;;;;;18.17;10.40;;;9.20;97.20;;;;;;1715184;28;20209;-75
2021/12/14 09:23:51;;;;;;;20.33;10.65;;;9.30;97.20;;;;;;1715222;28;20198;-75
2021/12/14 09:24:44;;;;;;;25.00;11.80;;;9.30;97.20;;;;;;1715118;28;20209;-75
2021/12/14 09:25:35;;;;;;;17.42;8.88;;;9.40;97.20;;;;;;1715146;28;20217;-75
2021/12/14 09:26:34;;;;;;;11.68;7.57;;;9.40;97.20;;;;;;1718759;28;20193;-75
2021/12/14 09:27:33;;;;;;;12.13;6.22;;;9.50;97.20;;;;;;1721843;28;20204;-75
2021/12/14 09:28:26;;;;;;;8.23;5.88;;;9.60;97.20;;;;;;1721982;28;20197;-75
2021/12/14 09:29:20;;;;;;;6.95;4.55;;;9.60;97.20;;;;;;1721653;28;20554;-75
2021/12/14 09:30:14;;;;;;;4.70;4.25;;;9.70;97.20;;;;;;1721825;28;20224;-75
2021/12/14 09:31:09;;;;;;;4.85;3.58;;;9.70;97.20;;;;;;1721802;28;20206;-75
2021/12/14 09:32:06;;;;;;;4.25;3.85;;;9.70;97.20;;;;;;1721775;28;20237;-75
2021/12/14 09:32:57;;;;;;;4.80;4.40;;;9.70;97.20;;;;;;1721918;28;20213;-75
2021/12/14 09:33:50;;;;;;;4.40;4.00;;;9.80;97.20;;;;;;1721810;28;20201;-75
2021/12/14 09:34:41;;;;;;;4.30;3.90;;;9.80;97.20;;;;;;1721739;28;20212;-75
2021/12/14 09:35:35;;;;;;;4.70;4.30;;;9.80;97.20;;;;;;1721825;28;20618;-75
2021/12/14 09:36:28;;;;;;;4.75;4.25;;;9.90;97.20;;;;;;1721752;28;20363;-75
2021/12/14 09:37:23;;;;;;;4.55;3.80;;;9.90;97.20;;;;;;1721795;28;20193;-75
2021/12/14 09:38:19;;;;;;;5.00;4.20;;;10.00;97.20;;;;;;1721837;28;20243;-75
2021/12/14 09:39:13;;;;;;;4.35;3.95;;;10.00;97.20;;;;;;1721550;28;20211;-75
2021/12/14 09:40:10;;;;;;;4.53;4.20;;;10.10;97.20;;;;;;1721684;28;20212;-75
2021/12/14 09:41:07;;;;;;;4.60;4.20;;;10.10;97.20;;;;;;1721767;28;20646;-75
2021/12/14 09:42:00;;;;;;;5.38;4.85;;;10.20;97.20;;;;;;1721442;28;20229;-76
2021/12/14 09:42:53;;;;;;;14.40;7.13;;;10.20;97.20;;;;;;1719554;28;20665;-75
2021/12/14 09:43:46;;;;;;;11.80;7.55;;;10.20;97.20;;;;;;1721751;28;20291;-75
2021/12/14 09:44:39;;;;;;;9.30;6.80;;;10.30;97.20;;;;;;1715908;28;20555;-76
2021/12/14 09:45:34;;;;;;;6.88;5.75;;;10.30;97.20;;;;;;1715092;28;20202;-76
2021/12/14 09:46:25;;;;;;;5.20;4.70;;;10.30;97.20;;;;;;1715006;28;20283;-75
2021/12/14 09:47:19;;;;;;;4.80;4.40;;;10.30;97.20;;;;;;1715152;28;20210;-75
2021/12/14 09:48:12;;;;;;;6.60;6.00;;;10.40;97.20;;;;;;1715094;28;20879;-75
2021/12/14 09:49:07;;;;;;;7.45;6.75;;;10.40;97.20;;;;;;1714850;28;20205;-75
2021/12/14 09:50:00;;;;;;;6.07;5.57;;;10.50;97.20;;;;;;1714951;28;20230;-75
2021/12/14 09:50:53;;;;;;;4.80;4.40;;;10.50;97.20;;;;;;1714904;28;20312;-76
2021/12/14 09:51:48;;;;;;;5.72;4.20;;;10.60;97.20;;;;;;1715016;28;20202;-75
2021/12/14 09:52:43;;;;;;;3.80;3.50;;;10.70;97.20;;;;;;1714941;28;20202;-75
2021/12/14 09:53:37;;;;;;;4.28;3.88;;;10.80;97.20;;;;;;1714972;28;20202;-75
2021/12/14 09:54:30;;;;;;;4.50;4.07;;;10.80;97.20;;;;;;1714938;28;20208;-75
2021/12/14 09:55:27;;;;;;;4.70;3.30;;;10.80;97.20;;;;;;1715021;28;20213;-75
2021/12/14 09:56:21;;;;;;;4.00;3.70;;;10.80;97.20;;;;;;1715049;28;20202;-75
2021/12/14 09:57:16;;;;;;;4.25;3.85;;;10.80;97.20;;;;;;1715017;28;20245;-75
2021/12/14 09:58:14;;;;;;;3.22;3.03;;;10.80;97.20;;;;;;1715594;28;20253;-76
2021/12/14 09:59:08;;;;;;;4.40;4.10;;;10.80;97.20;;;;;;1721531;28;20233;-75
2021/12/14 10:00:04;;;;;;;4.15;3.75;;;10.80;97.20;;;;;;1721562;28;20201;-76
2021/12/14 10:01:00;;;;;;;3.35;3.10;;;10.80;97.20;;;;;;1708140;28;20292;-75
2021/12/14 10:01:56;;;;;;;3.63;3.35;;;10.80;97.20;;;;;;1712578;28;20289;-76
2021/12/14 10:02:50;;;;;;;4.00;3.70;;;10.90;97.20;;;;;;1720657;28;20202;-76
2021/12/14 10:03:44;;;;;;;3.97;3.67;;;10.90;97.20;;;;;;1721592;28;20237;-76
2021/12/14 10:04:41;;;;;;;4.43;3.55;;;10.90;97.20;;;;;;1721621;28;20227;-75
2021/12/14 10:05:35;;;;;;;4.68;3.78;;;10.90;97.20;;;;;;1721604;28;20204;-75
2021/12/14 10:06:30;;;;;;;3.45;3.15;;;10.80;97.20;;;;;;1721567;28;20197;-75
2021/12/14 10:07:23;;;;;;;3.60;3.30;;;10.80;97.20;;;;;;1721560;28;20640;-75
2021/12/14 10:08:21;;;;;;;3.75;3.45;;;10.80;97.20;;;;;;1721694;28;20208;-75
2021/12/14 10:09:16;;;;;;;4.28;3.88;;;10.80;97.20;;;;;;1721384;28;20208;-75
2021/12/14 10:10:13;;;;;;;3.72;3.42;;;10.80;97.20;;;;;;1721462;28;20197;-76
2021/12/14 10:11:11;;;;;;;4.75;4.35;;;10.80;97.20;;;;;;1721671;28;20949;-75
2021/12/14 10:12:17;;;;;;;3.85;3.47;;;10.80;97.20;;;;;;1721611;28;20263;-75
2021/12/14 10:13:08;;;;;;;3.33;3.03;;;10.80;97.20;;;;;;1721615;28;20221;-75
2021/12/14 10:14:00;;;;;;;3.90;3.60;;;10.80;97.20;;;;;;1717955;28;20232;-76
2021/12/14 10:14:52;;;;;;;3.40;3.15;;;10.90;97.20;;;;;;1714824;28;20236;-76
2021/12/14 10:15:47;;;;;;;3.10;2.80;;;10.90;97.20;;;;;;1714907;28;20284;-75
2021/12/14 10:16:38;;;;;;;4.30;3.08;;;10.90;97.20;;;;;;1714883;28;20202;-76
2021/12/14 10:17:30;;;;;;;3.28;3.03;;;10.90;97.20;;;;;;1714862;28;20222;-75
2021/12/14 10:18:26;;;;;;;3.25;2.78;;;10.90;97.20;;;;;;1714859;28;20236;-75
2021/12/14 10:19:21;;;;;;;2.65;2.45;;;10.90;97.20;;;;;;1714674;28;20578;-75
2021/12/14 10:20:16;;;;;;;2.70;2.50;;;10.80;97.20;;;;;;1714790;28;20234;-75
2021/12/14 10:21:12;;;;;;;2.70;2.50;;;10.80;97.20;;;;;;1714884;28;20194;-75
2021/12/14 10:22:21;;;;;;;2.97;2.70;;;10.80;97.20;;;;;;1714723;28;20202;-75
2021/12/14 10:23:14;;;;;;;4.47;2.85;;;10.80;97.20;;;;;;1714876;28;20209;-75
2021/12/14 10:24:07;;;;;;;3.00;2.80;;;10.80;97.20;;;;;;1714814;28;20209;-75
2021/12/14 10:25:03;;;;;;;3.42;3.10;;;10.80;97.20;;;;;;1714843;28;20436;-76
2021/12/14 10:25:55;;;;;;;3.38;3.08;;;10.80;97.20;;;;;;1714928;28;20595;-75
2021/12/14 10:26:51;;;;;;;4.78;3.03;;;10.80;97.20;;;;;;1714756;28;20206;-75
2021/12/14 10:27:43;;;;;;;3.17;2.97;;;10.70;97.20;;;;;;1714356;28;20210;-75
2021/12/14 10:28:38;;;;;;;3.40;3.10;;;10.70;97.20;;;;;;1714203;28;20289;-75
2021/12/14 10:29:29;;;;;;;3.63;3.33;;;10.70;97.20;;;;;;1715288;28;20202;-75
2021/12/14 10:30:25;;;;;;;3.60;3.30;;;10.60;97.20;;;;;;1714937;28;20202;-75
2021/12/14 10:31:20;;;;;;;3.80;3.50;;;10.60;97.20;;;;;;1714861;28;20236;-75
2021/12/14 10:32:14;;;;;;;3.25;2.95;;;10.50;97.20;;;;;;1714820;28;20202;-76
2021/12/14 10:33:08;;;;;;;3.30;3.00;;;10.50;97.20;;;;;;1714761;28;20247;-75
2021/12/14 10:34:03;;;;;;;3.13;2.92;;;10.50;97.20;;;;;;1714749;28;20201;-76
2021/12/14 10:34:58;;;;;;;2.65;2.45;;;10.50;97.20;;;;;;1714822;28;20209;-75
2021/12/14 10:35:55;;;;;;;3.53;3.22;;;10.50;97.20;;;;;;1714740;28;20209;-75
2021/12/14 10:36:48;;;;;;;3.25;2.95;;;10.50;97.20;;;;;;1714719;28;20206;-75
2021/12/14 10:37:53;;;;;;;3.40;3.10;;;10.50;97.20;;;;;;1714771;28;20198;-76
2021/12/14 10:39:04;;;;;;;3.10;2.70;;;10.50;97.20;;;;;;1714470;28;20202;-75
2021/12/14 10:42:52;;;;;;;4.05;2.88;;;10.50;97.20;;;;;;1714673;28;20202;-75
2021/12/14 10:43:43;;;;;;;3.40;3.10;;;10.50;97.20;;;;;;1714759;28;20209;-75
2021/12/14 10:44:40;;;;;;;3.50;3.20;;;10.50;97.20;;;;;;1714601;28;20201;-75
2021/12/14 10:45:32;;;;;;;3.40;3.10;;;10.60;97.20;;;;;;1714837;28;20207;-75
2021/12/14 10:46:29;;;;;;;3.15;2.85;;;10.60;97.20;;;;;;1720936;28;20256;-75
2021/12/14 10:47:23;;;;;;;4.10;3.67;;;10.60;97.20;;;;;;1721438;28;20264;-75
2021/12/14 10:48:16;;;;;;;4.07;3.60;;;10.60;97.20;;;;;;1721420;28;20636;-75
2021/12/14 10:49:07;;;;;;;5.20;4.80;;;10.70;97.20;;;;;;1721118;28;20205;-75
2021/12/14 10:50:02;;;;;;;5.55;5.03;;;10.70;97.20;;;;;;1721318;28;20216;-75
2021/12/14 10:50:54;;;;;;;8.02;5.00;;;10.70;97.20;;;;;;1721244;28;20260;-75
2021/12/14 10:51:49;;;;;;;6.88;6.05;;;10.70;97.20;;;;;;1721305;28;20204;-75
2021/12/14 10:52:43;;;;;;;6.05;5.30;;;10.70;97.20;;;;;;1721278;28;20224;-76
2021/12/14 10:53:35;;;;;;;6.88;5.95;;;10.80;97.20;;;;;;1721266;28;20225;-75